»·PEaware :: KLM691 KLAX-KSFO

KLM691 :: KLAX-KSFO

FLIGHT INFORMATION

Flight Status: Arrived
Operator:
KLM
More flights by this operator :: More flights under this callsign
Pilot: Thomas N. (7419)
Aircraft: AIRBUS A330-200
(A332)
More flights by this aircraft type
Origin: KLAX Los Angeles Intl
United States
Destination: KSFO San Francisco Intl
United States
More flights between these airports :: More routes between these airports
Route: +FIXIT2 RZS J501 BSR BSR2
File this flight plan on PilotEdge
Remarks:
Altitude:
(Current/Filed)
32,000ft
Speed:
(Current/Filed)
450kts
Departed: 08-Nov-15 08:19 PM
Arrived: 08-Nov-15 09:13 PM
Distance/Time
Traveled:
294nm/0:54
Distance/Time
To Go:
Arrived

Flight Plot

Page will automatically refresh every two minutes.


Map Options




Map Legend


Flown Route
Filed Route
Departure Airport
Arrival Airport
Navaid (VOR, NDB)
Fix

Horizontal Profiles

Position Reports

Time Latitude Longitude Heading Altitude Ground
Speed
08-Nov-15 19:30 33.940217 -118.403429 262 138ft 0kts
08-Nov-15 19:31 33.940217 -118.403429 262 138ft 0kts
08-Nov-15 19:32 33.940217 -118.403429 262 138ft 0kts
08-Nov-15 19:33 33.940217 -118.403429 262 138ft 0kts
08-Nov-15 19:34 33.940217 -118.403429 262 138ft 0kts
08-Nov-15 19:35 33.940217 -118.403429 262 138ft 0kts
08-Nov-15 19:36 33.940217 -118.403429 262 138ft 0kts
08-Nov-15 19:37 33.940217 -118.403429 262 138ft 0kts
08-Nov-15 19:38 33.940217 -118.403429 262 138ft 0kts
08-Nov-15 19:39 33.940217 -118.403429 262 138ft 0kts
08-Nov-15 19:40 33.940217 -118.403429 262 138ft 0kts
08-Nov-15 19:41 33.940217 -118.403429 262 138ft 0kts
08-Nov-15 19:42 33.940217 -118.403429 262 138ft 0kts
08-Nov-15 19:43 33.940217 -118.403429 262 138ft 0kts
08-Nov-15 19:44 33.940217 -118.403429 262 138ft 0kts
08-Nov-15 19:45 33.940217 -118.403429 262 138ft 0kts
08-Nov-15 19:46 33.940217 -118.403429 262 138ft 0kts
08-Nov-15 19:47 33.940217 -118.403429 262 138ft 0kts
08-Nov-15 19:48 33.940217 -118.403429 262 138ft 0kts
08-Nov-15 19:49 33.940217 -118.403429 262 138ft 0kts
08-Nov-15 19:50 33.940217 -118.403429 262 138ft 0kts
08-Nov-15 19:51 33.940217 -118.403429 262 138ft 0kts
08-Nov-15 19:52 33.940217 -118.403429 262 138ft 0kts
08-Nov-15 19:53 33.940217 -118.403429 262 138ft 0kts
08-Nov-15 19:54 33.940217 -118.403429 262 138ft 0kts
08-Nov-15 19:55 33.940217 -118.403429 262 138ft 0kts
08-Nov-15 19:56 33.940217 -118.403429 262 138ft 0kts
08-Nov-15 19:57 33.940217 -118.403429 262 138ft 0kts
08-Nov-15 19:58 33.940217 -118.403429 262 138ft 0kts
08-Nov-15 19:59 33.940217 -118.403429 262 138ft 0kts
08-Nov-15 20:00 33.940217 -118.403429 262 138ft 0kts
08-Nov-15 20:01 33.940217 -118.403429 262 138ft 0kts
08-Nov-15 20:02 33.940217 -118.403429 262 138ft 0kts
08-Nov-15 20:03 33.940217 -118.403429 262 138ft 0kts
08-Nov-15 20:04 33.940217 -118.403424 262 138ft 0kts
08-Nov-15 20:05 33.940237 -118.403212 254 138ft 0kts
08-Nov-15 20:06 33.940466 -118.403090 163 138ft 0kts
08-Nov-15 20:07 33.940473 -118.403090 163 138ft 0kts
08-Nov-15 20:08 33.940468 -118.403089 163 138ft 0kts
08-Nov-15 20:09 33.939956 -118.402970 169 138ft 5kts
08-Nov-15 20:10 33.939515 -118.400477 82 138ft 12kts
08-Nov-15 20:11 33.940094 -118.395495 82 138ft 15kts
08-Nov-15 20:12 33.940609 -118.389937 86 138ft 13kts
08-Nov-15 20:13 33.941033 -118.385525 81 138ft 13kts
08-Nov-15 20:14 33.940674 -118.381656 83 138ft 8kts
08-Nov-15 20:15 33.940728 -118.380726 107 138ft 0kts
08-Nov-15 20:16 33.939844 -118.380684 261 138ft 16kts
08-Nov-15 20:17 33.935872 -118.416109 262 850ft 184kts
08-Nov-15 20:18 33.929337 -118.484889 265 3336ft 237kts
08-Nov-15 20:19 33.922748 -118.568268 264 5120ft 270kts
08-Nov-15 20:20 33.917335 -118.659987 269 7518ft 280kts
08-Nov-15 20:21 33.916036 -118.754688 269 9827ft 289kts
08-Nov-15 20:22 33.915971 -118.858161 283 11298ft 311kts
08-Nov-15 20:23 33.954559 -118.946654 300 13032ft 304kts
08-Nov-15 20:24 34.024924 -118.992686 352 15132ft 312kts
08-Nov-15 20:25 34.112222 -119.006129 353 17156ft 323kts
08-Nov-15 20:26 34.175528 -119.079490 302 19283ft 337kts
08-Nov-15 20:27 34.224148 -119.176359 300 21281ft 345kts
08-Nov-15 20:28 34.273640 -119.277763 300 23311ft 355kts
08-Nov-15 20:29 34.324137 -119.382187 299 25342ft 366kts
08-Nov-15 20:30 34.375678 -119.490119 300 27359ft 378kts
08-Nov-15 20:31 34.429764 -119.603522 300 27533ft 396kts
08-Nov-15 20:32 34.488019 -119.726068 300 27644ft 448kts
08-Nov-15 20:33 34.575352 -119.842450 318 28580ft 481kts
08-Nov-15 20:34 34.675225 -119.951666 318 30680ft 484kts
08-Nov-15 20:35 34.774371 -120.060271 318 32058ft 481kts
08-Nov-15 20:36 34.873088 -120.168295 317 32064ft 477kts
08-Nov-15 20:37 34.967923 -120.272787 317 32061ft 476kts
08-Nov-15 20:38 35.066154 -120.381447 317 32060ft 477kts
08-Nov-15 20:39 35.164911 -120.491054 317 32053ft 483kts
08-Nov-15 20:40 35.264384 -120.601835 317 32051ft 484kts
08-Nov-15 20:41 35.363768 -120.713406 317 32049ft 482kts
08-Nov-15 20:42 35.462702 -120.824415 317 30971ft 476kts
08-Nov-15 20:43 35.556909 -120.931017 317 29185ft 451kts
08-Nov-15 20:44 35.649513 -121.035975 317 26461ft 456kts
08-Nov-15 20:45 35.740354 -121.138967 317 23807ft 436kts
08-Nov-15 20:46 35.826437 -121.237067 316 22894ft 407kts
08-Nov-15 20:47 35.907481 -121.329898 316 21937ft 416kts
08-Nov-15 20:48 35.994055 -121.428704 317 20967ft 425kts
08-Nov-15 20:49 36.081179 -121.528000 317 20075ft 425kts
08-Nov-15 20:50 36.166374 -121.625144 317 20090ft 416kts
08-Nov-15 20:51 36.259835 -121.710034 324 20091ft 415kts
08-Nov-15 20:52 36.348555 -121.787045 324 19205ft 373kts
08-Nov-15 20:53 36.433215 -121.860673 324 17039ft 370kts
08-Nov-15 20:54 36.528318 -121.900799 346 15300ft 356kts
08-Nov-15 20:55 36.621156 -121.928283 346 13804ft 337kts
08-Nov-15 20:56 36.708852 -121.953998 346 13003ft 319kts
08-Nov-15 20:57 36.794800 -121.977689 348 12415ft 314kts
08-Nov-15 20:58 36.880100 -122.000006 348 11817ft 307kts
08-Nov-15 20:59 36.960509 -122.021059 348 11206ft 293kts
08-Nov-15 21:00 37.040156 -122.041951 348 10017ft 291kts
08-Nov-15 21:01 37.117800 -122.062341 347 10000ft 283kts
08-Nov-15 21:02 37.194383 -122.082525 347 9226ft 279kts
08-Nov-15 21:03 37.256897 -122.099981 344 8032ft 273kts
08-Nov-15 21:04 37.343666 -122.125759 344 5977ft 286kts
08-Nov-15 21:05 37.423501 -122.150034 344 3980ft 290kts
08-Nov-15 21:06 37.467527 -122.170644 340 3963ft 263kts
08-Nov-15 21:07 37.537395 -122.189453 316 2740ft 256kts
08-Nov-15 21:08 37.568652 -122.264332 281 2388ft 224kts
08-Nov-15 21:09 37.597372 -122.324788 297 1016ft 187kts
08-Nov-15 21:10 37.617465 -122.372164 297 26ft 50kts
08-Nov-15 21:11 37.618955 -122.378425 266 26ft 9kts
08-Nov-15 21:12 37.620506 -122.384498 271 26ft 11kts
08-Nov-15 21:13 37.621019 -122.387407 207 26ft 7kts
08-Nov-15 21:14 37.620776 -122.387562 206 26ft 0kts

Navigation Log

Ident Type
Flight plan parsing failed, navigation log unavailable